Jemez Springs, Valles Caldera, New Mexico Weather observations

Data are for 10 minute period ending at time listed.
 Day   Time   Solar   Ave.   Ave.  Ave.  Vector  Max.   Baro.   Total    
  of    of     Rad.   Air    Rel.  Wind   Wind   Wind  Press.  Precip.   
Year   Day            Temp.  Hum.  Speed  Dir.   Gust                    
2017   (MST)  Kw/m2    F      %     mph   deg.    mph    mb.     in.     
-------------------------------------------------------------------------
 176   16:30   0.02   76.8    28    8.6   192    20.3   813.0    0.00 
 176   16:40   0.05   74.6    31   10.9   181    18.5   812.2    0.00 
 176   16:50   0.07   73.6    32    6.2   199    13.7   812.5    0.00 
 176   17:00   0.07   73.0    36    7.1   171    11.3   812.5    0.00 
 176   17:10   0.10   74.2    32    6.6   158    10.2   812.0    0.00 
 176   17:20   0.16   75.4    30    9.7   183    15.8   812.2    0.00 
 176   17:30   0.20   75.6    31    7.7   178    17.3   812.7    0.00 
 176   17:40   0.12   75.3    29    5.3   181    13.1   812.9    0.00 
 176   17:50   0.19   75.0    30    4.0   196     9.3   813.0    0.00 
 176   18:00   0.12   74.2    31    4.9   178     8.4   812.7    0.00 
 176   18:10   0.08   73.8    32    3.2   165     7.2   812.8    0.00 
 176   18:20   0.04   73.3    33    3.9   178     9.0   812.6    0.00 
 176   18:30   0.04   72.8    34    1.1    18     2.4   812.5    0.00 
 176   18:40   0.04   71.8    38    0.0     0     0.0   812.3    0.00 
 176   18:50   0.03   70.8    40    0.0     0     0.0   812.3    0.00 
 176   19:00   0.03   69.7    44    0.5   317     3.6   812.4    0.00 
 176   19:10   0.01   68.6    44    2.8   331     6.0   812.4    0.00 
 176   19:20   0.01   69.7    40    3.8   357     6.0   812.6    0.00 
 176   19:30   0.00   68.6    43    2.3   355     4.2   812.5    0.00 
 176   19:40   0.00   67.4    45    1.9    20     6.6   812.5    0.00 
 176   19:50   0.00   66.4    47    1.7    32     3.6   812.6    0.00 
 176   20:00   0.00   64.6    52    2.0    97     4.2   812.8    0.00 
 176   20:10   0.00   64.0    51    1.1    28     4.2   813.1    0.00 
 176   20:20   0.00   64.1    52    3.3    24     6.0   813.3    0.00 
 176   20:30   0.00   63.1    52    1.0   109     4.8   813.4    0.00 
 176   20:40   0.00   62.9    53    1.8   353     4.2   813.6    0.00 
 176   20:50   0.00   62.7    53    2.6     4     3.6   813.8    0.00 
 176   21:00   0.00   61.4    58    1.8    52     3.6   814.0    0.00 
 176   21:10   0.00   61.1    56    3.2    11     6.0   814.3    0.00 
 176   21:20   0.00   61.8    53    3.9    18     5.4   814.4    0.00 
 176   21:30   0.00   61.6    53    0.8   335     3.6   814.7    0.00 
 176   21:40   0.00   60.6    55    3.6    28     6.0   814.7    0.00 
 176   21:50   0.00   60.3    56    1.0   150     4.8   815.0    0.00 
 176   22:00   0.00   61.2    56    3.5   160    12.8   815.3    0.00 
 176   22:10   0.00   64.3    55    5.0   158     9.6   815.4    0.00 
 176   22:20   0.00   64.7    54    2.5   234     5.4   815.4    0.00 
 176   22:30   0.00   64.0    55    2.5   198     6.0   815.4    0.00 
 176   22:40   0.00   63.6    56    1.3   101     3.6   815.3    0.00 
 176   22:50   0.00   62.0    59    3.2    13     5.4   815.2    0.00 
 176   23:00   0.00   61.4    59    3.9     9     7.2   815.2    0.00 
 176   23:10   0.00   60.4    60    1.7    60     3.6   815.2    0.00 
 176   23:20   0.00   59.7    60    2.8    37     4.8   815.2    0.00 
 176   23:30   0.00   59.2    60    2.0    13     4.2   815.2    0.00 
 176   23:40   0.00   58.6    61    3.8    12     5.4   815.2    0.00 
 176   23:50   0.00   58.3    61    3.7    27     6.6   815.3    0.00 
 177    0:00   0.00   57.9    61    2.4    28     5.4   815.3    0.00 
 177    0:10   0.00   57.6    62    5.2    19     9.6   815.4    0.00 
 177    0:20   0.00   57.6    61    5.2   351     7.8   815.4    0.00 
 177    0:30   0.00   58.0    60    4.4   348     9.6   815.4    0.00 
 177    0:40   0.00   57.7    60    3.2    28     5.4   815.4    0.00 
 177    0:50   0.00   56.9    62    4.0    32     7.2   815.4    0.00 
 177    1:00   0.00   56.8    62    5.0    27     7.8   815.3    0.00 
 177    1:10   0.00   56.8    61    4.1     3     7.8   815.3    0.00 
 177    1:20   0.00   57.0    61    4.6    19     8.4   815.4    0.00 
 177    1:30   0.00   57.2    60    4.2     0     7.8   815.5    0.00 
 177    1:40   0.00   56.9    61    4.3    13     7.2   815.4    0.00 
 177    1:50   0.00   56.8    62    4.5    16     7.2   815.5    0.00 
 177    2:00   0.00   56.8    61    3.9     2     7.8   815.5    0.00 
 177    2:10   0.00   56.6    62    4.6    10     7.8   815.4    0.00 
 177    2:20   0.00   56.2    63    4.3     8     9.6   815.4    0.00 
 177    2:30   0.00   55.9    64    4.1    17     6.6   815.3    0.00 
 177    2:40   0.00   55.7    64    4.2     5     7.8   815.4    0.00 
 177    2:50   0.00   55.7    64    3.3    20     6.6   815.5    0.00 
 177    3:00   0.00   55.3    65    4.1    28     6.0   815.6    0.00 
 177    3:10   0.00   54.9    66    3.7    32     6.6   815.7    0.00 
 177    3:20   0.00   55.0    66    4.7    20     9.6   815.7    0.00 
 177    3:30   0.00   55.1    65    4.5    14     8.4   815.7    0.00 
 177    3:40   0.00   55.3    65    4.8    14    10.8   815.6    0.00 
 177    3:50   0.00   55.2    65    5.0     8     8.4   815.6    0.00 
 177    4:00   0.00   55.0    66    4.8     3     7.8   815.5    0.00 
 177    4:10   0.00   55.2    66    5.1   358    10.2   815.6    0.00 
 177    4:20   0.00   55.5    65    5.1     9    10.2   815.7    0.00 
 177    4:30   0.00   55.1    66    4.2     4     7.8   815.7    0.00 
 177    4:40   0.00   55.1    66    5.0     1     8.4   815.7    0.00 
 177    4:50   0.00   55.1    66    4.5    11     7.8   815.7    0.00 
 177    5:00   0.00   55.2    66    4.3   358     7.8   815.8    0.00 
 177    5:10   0.01   55.1    66    5.0   358    10.8   815.9    0.00 
 177    5:20   0.02   55.2    66    4.6   359     9.0   816.0    0.00 
 177    5:30   0.03   55.6    66    5.4     2     9.0   816.0    0.00 
 177    5:40   0.03   55.7    66    4.4   354     7.8   816.0    0.00 
 177    5:50   0.03   56.1    66    4.4     4     9.6   815.9    0.00 
 177    6:00   0.04   56.2    65    5.6     3    10.8   815.9    0.00 
 177    6:10   0.05   56.3    65    3.8    10     8.4   816.0    0.00 
 177    6:20   0.11   57.1    64    2.6   358     7.8   816.2    0.00 
 177    6:30   0.09   58.5    62    2.4     3     5.4   816.4    0.00 
 177    6:40   0.08   58.6    62    2.7    15     5.4   816.4    0.00 
 177    6:50   0.16   59.4    61    3.0    17     7.2   816.3    0.00 
 177    7:00   0.30   62.3    56    4.2    35     7.2   816.2    0.00 
 177    7:10   0.17   62.6    54    2.7    51     6.0   816.0    0.00 
 177    7:20   0.16   62.5    57    2.9    26     6.0   816.0    0.00 
 177    7:30   0.16   63.8    55    2.3    55     4.2   815.8    0.00 
 177    7:40   0.21   65.5    51    0.7   110     3.0   815.7    0.00 
 177    7:50   0.14   65.7    51    0.1   120     1.8   815.6    0.00 
 177    8:00   0.53   67.6    49    2.3   134     5.4   815.6    0.00 
 177    8:10   0.63   69.6    45    2.9   127     5.4   815.5    0.00 
 177    8:20   0.57   72.3    40    1.3   112     4.8   815.3    0.00 
 177    8:30   0.64   71.8    42    5.0   149    10.2   815.3    0.00 
 177    8:40   0.66   72.5    41    4.5   164     7.8   815.2    0.00 
 177    8:50   0.68   74.3    39    3.7   198     6.6   815.1    0.00 
 177    9:00   0.70   73.7    40    5.2   177     7.8   815.0    0.00 
 177    9:10   0.73   73.4    40    5.1   158     9.6   814.8    0.00 
 177    9:20   0.76   74.2    39    6.4   171    10.2   814.7    0.00 
 177    9:30   0.78   74.7    39    6.3   168    11.9   814.7    0.00 
 177    9:40   0.81   74.6    39    8.3   174    12.5   814.6    0.00 
 177    9:50   0.81   74.8    39    7.6   176    14.9   814.6    0.00 
 177   10:00   0.84   75.6    38    7.1   172    13.7   814.6    0.00 
 177   10:10   0.87   76.2    36    7.5   172    13.7   814.5    0.00 
 177   10:20   0.89   76.5    36    7.8   179    13.7   814.4    0.00 
 177   10:30   0.90   77.0    35    9.6   174    14.9   814.4    0.00 
 177   10:40   0.91   77.4    34    8.8   174    13.7   814.4    0.00 
 177   10:50   0.82   77.6    34    7.8   178    13.7   814.4    0.00 
 177   11:00   0.92   77.2    34    9.7   178    15.5   814.3    0.00 
 177   11:10   0.94   77.8    33    9.0   179    14.9   814.2    0.00 
 177   11:20   0.95   78.1    33    9.7   186    14.9   814.2    0.00 
 177   11:30   0.97   78.9    32    9.3   180    14.3   814.1    0.00 
 177   11:40   0.99   79.7    31    9.1   175    13.1   813.9    0.00 
 177   11:50   0.99   80.1    31    9.8   179    14.9   813.8    0.00 
 177   12:00   1.01   79.6    31    9.9   178    17.3   813.6    0.00 
 177   12:10   1.04   81.4    29    8.6   190    17.3   813.5    0.00 
 177   12:20   1.08   81.7    28    8.6   182    16.7   813.2    0.00 
 177   12:30   1.08   82.5    27    9.3   175    17.9   813.1    0.00 
 177   12:40   1.05   82.9    27   10.0   176    15.5   812.8    0.00 
 177   12:50   1.02   83.3    25    9.6   176    17.3   812.7    0.00 
 177   13:00   1.01   83.7    24    8.6   163    14.3   812.7    0.00 
 177   13:10   1.02   83.9    23    8.7   174    16.7   812.6    0.00 
 177   13:20   1.01   85.2    22    8.9   176    18.5   812.5    0.00 
 177   13:30   0.99   84.6    22    9.5   177    16.7   812.4    0.00 
 177   13:40   0.96   84.5    21    8.9   178    15.5   812.2    0.00 
 177   13:50   0.96   84.3    21    9.8   181    15.5   812.1    0.00 
 177   14:00   1.00   84.9    21   11.4   184    20.3   811.9    0.00 
 177   14:10   0.77   86.4    20    9.0   177    15.5   811.7    0.00 
 177   14:20   0.96   85.5    20    9.2   179    16.7   811.4    0.00 
 177   14:30   0.68   86.0    20   10.3   186    16.1   811.2    0.00 
 177   14:40   0.61   85.8    20    8.5   176    15.5   811.2    0.00 
 177   14:50   0.95   87.2    19    7.8   178    16.7   811.1    0.00 
 177   15:00   0.81   87.5    19    7.2   166    15.5   811.1    0.00 
 177   15:10   0.45   85.9    20   11.4   160    20.3   811.2    0.00 
 177   15:20   0.32   82.1    25    8.4   157    16.1   811.4    0.00 
 177   15:30   0.34   80.5    24    8.3    28    22.1   811.8    0.00 
 177   15:40   0.53   79.6    22    7.1   128    15.5   811.7    0.00 
 177   15:50   0.21   78.7    22    8.2   141    18.5   811.6    0.00 
 177   16:00   0.18   78.2    22    5.8    94    13.7   811.8    0.00 
 177   16:10   0.17   79.1    21    5.5    89    13.7   811.6    0.00 
 177   16:20   0.08   78.0    20    7.5   156    20.3   811.7    0.00 

Return to Jemez Springs, Valles Caldera graphs page.


Western Regional Climate Center,wrcc@dri.edu